Lincoln, New Hampshire
Current Conditions -  °F | °C
As of 2:35 PM on Friday 28 Nov 2014 (Local Time) from K1P1 Reporting Station
Scattered Clouds Scattered Clouds  
Wind Chill: 21°   Ceiling: Unl
Heat Index: 29°   Visibility: 10mi
Dew Point: 18°   Wind: 8mph
Humidity: 65%   Direction: 300°WNW
Pressure: 30.04"   Gusts: 20mph
Location:  44.05°N, 71.67°W
Report Text: K1P1 281935Z AUTO 30007G17KT 10SM SCT045 M02/M08 A3004 RMK AO2 T10181077
Loading
Personal Weather Stations






























Interactive Weather Map New forecast layout! Learn more

10-Day Weather Forecast

Advertisements
Track Severe Weather on mobile